Ryuhomaru — JD2639 — position and weather

sailwx.info

Track history (hours):
 
Tides and Currents Weather Stations Pressure Air Temp Water Temp Dewpoint Dewpoint Depression Visibility Wind Speed Wind Dir Waves Ship Positions

Ryuhomaru

Last reported at 2015-Jan-28 19:33 UTC. Time now 2015-Jan-28 20:14 UTC.
Position N 34°34' E 135°24'.

Length 42 m; draft 3.5 m.

Type: Tug. MMSI: 431000586.

Date/timePositionNaut miles runAvg speedWind from/ knotsBaromVisibWave heightAir tempDewpointWater temp
2015-Jan-28 19:33N 34°34' E 135°24'0 0.1
2015-Jan-28 18:33N 34°34' E 135°24'0 0.0
2015-Jan-28 17:33N 34°34' E 135°24'0 0.0
2015-Jan-28 16:33N 34°34' E 135°24'0 0.0
2015-Jan-28 15:33N 34°34' E 135°24'0 0.0
2015-Jan-28 14:30N 34°34' E 135°24'0 0.1
2015-Jan-28 13:33N 34°34' E 135°24'0 0.1
2015-Jan-28 12:32N 34°34' E 135°24'0 0.1
2015-Jan-28 11:33N 34°34' E 135°24'0 0.0
2015-Jan-28 10:30N 34°34' E 135°24'0 0.0
2015-Jan-28 09:32N 34°34' E 135°24'0 0.1
2015-Jan-28 08:32N 34°34' E 135°24'0 0.1
2015-Jan-28 07:33N 34°34' E 135°24'0 0.0
2015-Jan-28 06:25N 34°34' E 135°24'0 0.1
2015-Jan-28 05:31N 34°34' E 135°24'0 0.0
2015-Jan-28 04:32N 34°34' E 135°24'0 0.0
2015-Jan-28 03:05N 34°34' E 135°24'0 0.0
2015-Jan-28 02:29N 34°34' E 135°24'0 0.1
2015-Jan-28 01:30N 34°34' E 135°24'0 0.1
2015-Jan-28 00:25N 34°34' E 135°24'0 0.3
2015-Jan-27 23:21N 34°34' E 135°24'6 7.0
2015-Jan-27 22:33N 34°32' E 135°18'1514.8
2015-Jan-27 21:32N 34°22' E 135°04'1212.7
2015-Jan-27 20:33N 34°11' E 134°58'7 6.4
2015-Jan-27 19:27N 34°18' E 134°58'1112.0
2015-Jan-27 18:33N 34°26' E 135°07'1413.9
2015-Jan-27 17:33N 34°32' E 135°22'4 3.8
2015-Jan-27 16:33N 34°33' E 135°27'0 0.0
2015-Jan-27 04:32N 34°33' E 135°27'6 5.9
2015-Jan-27 03:33N 34°39' E 135°25'2 1.6
2015-Jan-27 02:31N 34°38' E 135°27'2 2.0
2015-Jan-27 01:34N 34°39' E 135°25'5 5.0
2015-Jan-27 00:33N 34°34' E 135°24'0 0.0
2015-Jan-26 23:30N 34°34' E 135°24'0 0.0
2015-Jan-26 08:34N 34°33' E 135°24'3 2.5
2015-Jan-26 07:31N 34°31' E 135°23'0 0.4
2015-Jan-26 06:33N 34°31' E 135°24'1 1.0
2015-Jan-26 05:29N 34°32' E 135°24'3 0.9
2015-Jan-26 02:33N 34°33' E 135°27'0 0.0
2015-Jan-26 01:33N 34°33' E 135°27'0 0.0
2015-Jan-26 00:25N 34°33' E 135°27'0 0.0
2015-Jan-25 23:33N 34°33' E 135°27'2 0.2
2015-Jan-25 09:27N 34°34' E 135°24'4 4.7
2015-Jan-25 08:33N 34°38' E 135°24'3 2.4
2015-Jan-25 07:31N 34°35' E 135°24'3 3.1
2015-Jan-25 06:26N 34°33' E 135°27'0 0.0
2015-Jan-25 05:28N 34°33' E 135°27'0 0.0
2015-Jan-25 04:33N 34°33' E 135°27'0 0.0
2015-Jan-25 03:33N 34°33' E 135°27'0 0.0
2015-Jan-25 02:33N 34°33' E 135°27'0 0.0
2015-Jan-25 01:29N 34°33' E 135°27'0 0.0
2015-Jan-25 00:32N 34°33' E 135°27'0 0.0
2015-Jan-24 23:33N 34°33' E 135°27'1 0.4
2015-Jan-24 22:17N 34°34' E 135°26'1 0.7
2015-Jan-24 21:34N 34°33' E 135°27'0 0.0
2015-Jan-24 20:34N 34°33' E 135°27'0 0.0
2015-Jan-24 04:24N 34°33' E 135°27'5 6.4
2015-Jan-24 03:33N 34°38' E 135°23'3 2.7
2015-Jan-24 02:33N 34°35' E 135°24'3 3.1
2015-Jan-24 01:33N 34°33' E 135°27'0 0.0
2015-Jan-24 00:33N 34°33' E 135°27'0 0.0
2015-Jan-23 23:34N 34°33' E 135°27'0 0.0
2015-Jan-23 05:33N 34°33' E 135°27'0 0.0
2015-Jan-23 04:33N 34°33' E 135°27'0 0.0
2015-Jan-23 03:26N 34°33' E 135°27'0 0.0
2015-Jan-23 02:33N 34°33' E 135°27'0 0.0
2015-Jan-23 00:24N 34°33' E 135°27'1 0.9
2015-Jan-22 23:10N 34°33' E 135°25'1 1.9
2015-Jan-22 22:29N 34°33' E 135°24'4 4.0
2015-Jan-22 21:33N 34°34' E 135°20'6 5.8
2015-Jan-22 20:33N 34°33' E 135°27'2 0.1
2015-Jan-22 07:32N 34°33' E 135°25'1 1.3
2015-Jan-22 06:33N 34°33' E 135°26'0 0.5
2015-Jan-22 05:33N 34°33' E 135°27'0 0.0
2015-Jan-22 04:33N 34°33' E 135°27'0 0.0
2015-Jan-22 03:33N 34°33' E 135°27'0 0.0
2015-Jan-22 02:33N 34°33' E 135°27'0 0.0
2015-Jan-22 01:25N 34°33' E 135°27'1 0.8
2015-Jan-22 00:32N 34°33' E 135°26'1 0.8
2015-Jan-21 23:18N 34°33' E 135°25'3 4.3
2015-Jan-21 22:41N 34°34' E 135°22'210.7
2015-Jan-21 22:31N 34°34' E 135°20'5 5.4
2015-Jan-21 21:32N 34°33' E 135°26'0 0.3
2015-Jan-21 20:33N 34°33' E 135°27'0 0.0
2015-Jan-21 06:33N 34°33' E 135°27'1 0.6
2015-Jan-21 05:32N 34°33' E 135°26'2 2.4
2015-Jan-21 04:33N 34°33' E 135°23'3 3.1
2015-Jan-21 03:33N 34°34' E 135°19'5 5.1
2015-Jan-21 02:30N 34°33' E 135°26'0 0.1
2015-Jan-21 01:29N 34°33' E 135°26'0 0.0
2015-Jan-21 00:30N 34°33' E 135°26'0 0.2
2015-Jan-20 23:32N 34°33' E 135°26'2 2.4
2015-Jan-20 22:33N 34°33' E 135°23'3 2.7
2015-Jan-20 21:33N 34°34' E 135°20'5 5.4
2015-Jan-20 20:33N 34°33' E 135°27'0 0.0
2015-Jan-20 07:33N 34°33' E 135°27'0 0.4
2015-Jan-20 06:33N 34°33' E 135°26'1 1.1
2015-Jan-20 05:31N 34°33' E 135°25'5 5.1
2015-Jan-20 04:32N 34°34' E 135°19'7 6.6
2015-Jan-20 03:32N 34°33' E 135°27'0 0.0
2015-Jan-20 02:32N 34°33' E 135°27'0 0.0
2015-Jan-19 06:20N 34°33' E 135°27'3 4.2
2015-Jan-19 05:33N 34°32' E 135°23'3 3.2
2015-Jan-19 04:33N 34°33' E 135°26'0 0.5
2015-Jan-19 03:33N 34°33' E 135°27'0 0.0
2015-Jan-19 02:33N 34°33' E 135°27'0 0.0
2015-Jan-19 01:33N 34°33' E 135°27'0 0.0
2015-Jan-19 00:32N 34°33' E 135°27'0 0.0
2015-Jan-18 23:33N 34°33' E 135°27'4 3.7
2015-Jan-18 22:33N 34°31' E 135°23'2 1.9
2015-Jan-18 21:33N 34°33' E 135°23'3 3.3
2015-Jan-18 20:33N 34°33' E 135°27'  
Track history (hours):
 
Tides and Currents Weather Stations Pressure Air Temp Water Temp Dewpoint Dewpoint Depression Visibility Wind Speed Wind Dir Waves Ship Positions

Ryuhomaru

Last reported at 2015-Jan-28 19:33 UTC. Time now 2015-Jan-28 20:14 UTC.
Position N 34°34' E 135°24'.

Length 42 m; draft 3.5 m.

Type: Tug. MMSI: 431000586.

Date/timePositionNaut miles runAvg speedWind from/ knotsBaromVisibWave heightAir tempDewpointWater temp
2015-Jan-28 19:33N 34°34' E 135°24'0 0.1
2015-Jan-28 18:33N 34°34' E 135°24'0 0.0
2015-Jan-28 17:33N 34°34' E 135°24'0 0.0
2015-Jan-28 16:33N 34°34' E 135°24'0 0.0
2015-Jan-28 15:33N 34°34' E 135°24'0 0.0
2015-Jan-28 14:30N 34°34' E 135°24'0 0.1
2015-Jan-28 13:33N 34°34' E 135°24'0 0.1
2015-Jan-28 12:32N 34°34' E 135°24'0 0.1
2015-Jan-28 11:33N 34°34' E 135°24'0 0.0
2015-Jan-28 10:30N 34°34' E 135°24'0 0.0
2015-Jan-28 09:32N 34°34' E 135°24'0 0.1
2015-Jan-28 08:32N 34°34' E 135°24'0 0.1
2015-Jan-28 07:33N 34°34' E 135°24'0 0.0
2015-Jan-28 06:25N 34°34' E 135°24'0 0.1
2015-Jan-28 05:31N 34°34' E 135°24'0 0.0
2015-Jan-28 04:32N 34°34' E 135°24'0 0.0
2015-Jan-28 03:05N 34°34' E 135°24'0 0.0
2015-Jan-28 02:29N 34°34' E 135°24'0 0.1
2015-Jan-28 01:30N 34°34' E 135°24'0 0.1
2015-Jan-28 00:25N 34°34' E 135°24'0 0.3
2015-Jan-27 23:21N 34°34' E 135°24'6 7.0
2015-Jan-27 22:33N 34°32' E 135°18'1514.8
2015-Jan-27 21:32N 34°22' E 135°04'1212.7
2015-Jan-27 20:33N 34°11' E 134°58'7 6.4
2015-Jan-27 19:27N 34°18' E 134°58'1112.0
2015-Jan-27 18:33N 34°26' E 135°07'1413.9
2015-Jan-27 17:33N 34°32' E 135°22'4 3.8
2015-Jan-27 16:33N 34°33' E 135°27'0 0.0
2015-Jan-27 04:32N 34°33' E 135°27'6 5.9
2015-Jan-27 03:33N 34°39' E 135°25'2 1.6
2015-Jan-27 02:31N 34°38' E 135°27'2 2.0
2015-Jan-27 01:34N 34°39' E 135°25'5 5.0
2015-Jan-27 00:33N 34°34' E 135°24'0 0.0
2015-Jan-26 23:30N 34°34' E 135°24'0 0.0
2015-Jan-26 08:34N 34°33' E 135°24'3 2.5
2015-Jan-26 07:31N 34°31' E 135°23'0 0.4
2015-Jan-26 06:33N 34°31' E 135°24'1 1.0
2015-Jan-26 05:29N 34°32' E 135°24'3 0.9
2015-Jan-26 02:33N 34°33' E 135°27'0 0.0
2015-Jan-26 01:33N 34°33' E 135°27'0 0.0
2015-Jan-26 00:25N 34°33' E 135°27'0 0.0
2015-Jan-25 23:33N 34°33' E 135°27'2 0.2
2015-Jan-25 09:27N 34°34' E 135°24'4 4.7
2015-Jan-25 08:33N 34°38' E 135°24'3 2.4
2015-Jan-25 07:31N 34°35' E 135°24'3 3.1
2015-Jan-25 06:26N 34°33' E 135°27'0 0.0
2015-Jan-25 05:28N 34°33' E 135°27'0 0.0
2015-Jan-25 04:33N 34°33' E 135°27'0 0.0
2015-Jan-25 03:33N 34°33' E 135°27'0 0.0
2015-Jan-25 02:33N 34°33' E 135°27'0 0.0
2015-Jan-25 01:29N 34°33' E 135°27'0 0.0
2015-Jan-25 00:32N 34°33' E 135°27'0 0.0
2015-Jan-24 23:33N 34°33' E 135°27'1 0.4
2015-Jan-24 22:17N 34°34' E 135°26'1 0.7
2015-Jan-24 21:34N 34°33' E 135°27'0 0.0
2015-Jan-24 20:34N 34°33' E 135°27'0 0.0
2015-Jan-24 04:24N 34°33' E 135°27'5 6.4
2015-Jan-24 03:33N 34°38' E 135°23'3 2.7
2015-Jan-24 02:33N 34°35' E 135°24'3 3.1
2015-Jan-24 01:33N 34°33' E 135°27'0 0.0
2015-Jan-24 00:33N 34°33' E 135°27'0 0.0
2015-Jan-23 23:34N 34°33' E 135°27'0 0.0
2015-Jan-23 05:33N 34°33' E 135°27'0 0.0
2015-Jan-23 04:33N 34°33' E 135°27'0 0.0
2015-Jan-23 03:26N 34°33' E 135°27'0 0.0
2015-Jan-23 02:33N 34°33' E 135°27'0 0.0
2015-Jan-23 00:24N 34°33' E 135°27'1 0.9
2015-Jan-22 23:10N 34°33' E 135°25'1 1.9
2015-Jan-22 22:29N 34°33' E 135°24'4 4.0
2015-Jan-22 21:33N 34°34' E 135°20'6 5.8
2015-Jan-22 20:33N 34°33' E 135°27'2 0.1
2015-Jan-22 07:32N 34°33' E 135°25'1 1.3
2015-Jan-22 06:33N 34°33' E 135°26'0 0.5
2015-Jan-22 05:33N 34°33' E 135°27'0 0.0
2015-Jan-22 04:33N 34°33' E 135°27'0 0.0
2015-Jan-22 03:33N 34°33' E 135°27'0 0.0
2015-Jan-22 02:33N 34°33' E 135°27'0 0.0
2015-Jan-22 01:25N 34°33' E 135°27'1 0.8
2015-Jan-22 00:32N 34°33' E 135°26'1 0.8
2015-Jan-21 23:18N 34°33' E 135°25'3 4.3
2015-Jan-21 22:41N 34°34' E 135°22'210.7
2015-Jan-21 22:31N 34°34' E 135°20'5 5.4
2015-Jan-21 21:32N 34°33' E 135°26'0 0.3
2015-Jan-21 20:33N 34°33' E 135°27'0 0.0
2015-Jan-21 06:33N 34°33' E 135°27'1 0.6
2015-Jan-21 05:32N 34°33' E 135°26'2 2.4
2015-Jan-21 04:33N 34°33' E 135°23'3 3.1
2015-Jan-21 03:33N 34°34' E 135°19'5 5.1
2015-Jan-21 02:30N 34°33' E 135°26'0 0.1
2015-Jan-21 01:29N 34°33' E 135°26'0 0.0
2015-Jan-21 00:30N 34°33' E 135°26'0 0.2
2015-Jan-20 23:32N 34°33' E 135°26'2 2.4
2015-Jan-20 22:33N 34°33' E 135°23'3 2.7
2015-Jan-20 21:33N 34°34' E 135°20'5 5.4
2015-Jan-20 20:33N 34°33' E 135°27'0 0.0
2015-Jan-20 07:33N 34°33' E 135°27'0 0.4
2015-Jan-20 06:33N 34°33' E 135°26'1 1.1
2015-Jan-20 05:31N 34°33' E 135°25'5 5.1
2015-Jan-20 04:32N 34°34' E 135°19'7 6.6
2015-Jan-20 03:32N 34°33' E 135°27'0 0.0
2015-Jan-20 02:32N 34°33' E 135°27'0 0.0
2015-Jan-19 06:20N 34°33' E 135°27'3 4.2
2015-Jan-19 05:33N 34°32' E 135°23'3 3.2
2015-Jan-19 04:33N 34°33' E 135°26'0 0.5
2015-Jan-19 03:33N 34°33' E 135°27'0 0.0
2015-Jan-19 02:33N 34°33' E 135°27'0 0.0
2015-Jan-19 01:33N 34°33' E 135°27'0 0.0
2015-Jan-19 00:32N 34°33' E 135°27'0 0.0
2015-Jan-18 23:33N 34°33' E 135°27'4 3.7
2015-Jan-18 22:33N 34°31' E 135°23'2 1.9
2015-Jan-18 21:33N 34°33' E 135°23'3 3.3
2015-Jan-18 20:33N 34°33' E 135°27'  

Dump ship's entire track history